Time;durP1;ratioP1;P1;durP2;ratioP2;P2;SDS_P1;SDS_P2;PMS_P1;PMS_P2;Temp;Humidity;BMP_temperature;BMP_pressure;BME280_temperature;BME280_humidity;BME280_pressure;Samples;Min_cycle;Max_cycle;Signal;HPM_P1;HPM_P2
2023/03/20 00:02:05;;;;;;;35.10;21.85;;;8.20;50.60;;;;;;4949762;28;114452;-82
2023/03/20 00:04:33;;;;;;;31.33;20.90;;;8.20;50.60;;;;;;4981227;28;115193;-82
2023/03/20 00:07:00;;;;;;;33.38;20.20;;;8.20;50.70;;;;;;4968528;28;118116;-82
2023/03/20 00:09:28;;;;;;;32.65;20.67;;;8.20;50.60;;;;;;4979796;28;114930;-81
2023/03/20 00:11:55;;;;;;;33.80;21.05;;;8.20;50.80;;;;;;4981490;28;114860;-81
2023/03/20 00:14:23;;;;;;;27.77;19.20;;;8.20;50.60;;;;;;4944729;28;116406;-80
2023/03/20 00:16:51;;;;;;;34.80;20.20;;;8.20;50.70;;;;;;4959440;28;116512;-81
2023/03/20 00:19:28;;;;;;;32.88;20.67;;;8.20;50.60;;;;;;4951079;28;114933;-80
2023/03/20 00:21:56;;;;;;;34.35;20.45;;;8.20;50.90;;;;;;4962420;28;114867;-79
2023/03/20 00:24:23;;;;;;;31.65;20.27;;;8.10;50.70;;;;;;4945161;28;118023;-80
2023/03/20 00:26:51;;;;;;;29.77;19.70;;;8.10;50.80;;;;;;4961412;28;114684;-81
2023/03/20 00:29:24;;;;;;;31.83;19.20;;;8.10;50.80;;;;;;4962132;28;114936;-81
2023/03/20 00:31:52;;;;;;;29.87;20.17;;;8.10;50.90;;;;;;4962455;28;114793;-81
2023/03/20 00:34:25;;;;;;;32.85;19.95;;;8.00;50.90;;;;;;4961253;28;115510;-82
2023/03/20 00:36:53;;;;;;;35.30;19.77;;;8.00;51.00;;;;;;4980710;28;114787;-81
2023/03/20 00:39:21;;;;;;;32.85;19.67;;;8.00;51.00;;;;;;4980983;28;115034;-81
2023/03/20 00:41:53;;;;;;;34.60;21.52;;;8.00;50.90;;;;;;4982848;28;114500;-80
2023/03/20 00:44:38;;;;;;;36.05;20.08;;;7.90;51.00;;;;;;4981869;28;115101;-80
2023/03/20 00:47:23;;;;;;;36.03;20.05;;;7.90;51.10;;;;;;4964761;28;114734;-80
2023/03/20 00:49:51;;;;;;;35.72;21.25;;;7.90;51.30;;;;;;4981933;28;114670;-82
2023/03/20 00:52:19;;;;;;;35.90;21.77;;;7.80;51.30;;;;;;4982174;28;114587;-82
2023/03/20 00:54:46;;;;;;;34.50;20.70;;;7.80;51.40;;;;;;4981086;28;115248;-81
2023/03/20 00:57:23;;;;;;;31.50;20.98;;;7.70;51.50;;;;;;4965101;28;115338;-81
2023/03/20 01:00:03;;;;;;;32.50;19.58;;;7.70;51.80;;;;;;4949653;28;114688;-82
2023/03/20 01:02:31;;;;;;;30.25;20.23;;;7.70;51.60;;;;;;4962965;28;114737;-82
2023/03/20 01:05:00;;;;;;;30.25;19.50;;;7.70;51.50;;;;;;4964252;28;115574;-82
2023/03/20 01:07:27;;;;;;;32.80;19.88;;;7.70;51.60;;;;;;4977385;28;116921;-81
2023/03/20 01:09:55;;;;;;;30.90;19.48;;;7.70;51.70;;;;;;4988426;28;115935;-81
2023/03/20 01:12:22;;;;;;;29.75;18.92;;;7.70;51.60;;;;;;4986899;28;114606;-80
2023/03/20 01:14:52;;;;;;;30.75;18.80;;;7.70;51.60;;;;;;4951949;28;117279;-81
2023/03/20 01:17:24;;;;;;;28.65;18.48;;;7.80;51.40;;;;;;4971224;28;114637;-81
2023/03/20 01:19:52;;;;;;;26.48;18.60;;;7.70;51.40;;;;;;4966084;28;114761;-81
2023/03/20 01:22:19;;;;;;;31.38;18.63;;;7.80;51.30;;;;;;4950238;28;114584;-81
2023/03/20 01:24:47;;;;;;;29.55;17.88;;;7.80;51.30;;;;;;4948370;28;119804;-81
2023/03/20 01:27:16;;;;;;;26.27;16.95;;;7.80;51.20;;;;;;4964040;28;115245;-81
2023/03/20 01:29:44;;;;;;;27.92;16.42;;;7.80;51.30;;;;;;4965493;28;114647;-81
2023/03/20 01:32:17;;;;;;;27.73;17.05;;;7.70;51.10;;;;;;4949919;28;114394;-81
2023/03/20 01:34:49;;;;;;;29.55;18.45;;;7.70;51.10;;;;;;4964841;28;114997;-81
2023/03/20 01:37:26;;;;;;;29.00;17.73;;;7.80;51.00;;;;;;4964781;28;116690;-81
2023/03/20 01:39:58;;;;;;;28.20;17.40;;;7.70;51.10;;;;;;4949968;28;115119;-81
2023/03/20 01:42:26;;;;;;;27.50;17.70;;;7.70;51.20;;;;;;4965825;28;114587;-81
2023/03/20 01:45:27;;;;;;;28.67;18.15;;;7.70;51.30;;;;;;4950170;28;115142;-81
2023/03/20 01:47:57;;;;;;;30.35;18.80;;;7.80;51.30;;;;;;4948989;28;115088;-81
2023/03/20 01:50:31;;;;;;;29.85;18.38;;;7.70;51.40;;;;;;4949298;28;114560;-81
2023/03/20 01:53:19;;;;;;;23.77;17.67;;;7.70;51.60;;;;;;4950501;28;116128;-81
2023/03/20 01:55:54;;;;;;;27.63;16.57;;;7.70;51.60;;;;;;4948302;28;115723;-82
2023/03/20 01:58:31;;;;;;;27.70;17.00;;;7.70;51.40;;;;;;4933106;28;114586;-82
2023/03/20 02:00:59;;;;;;;28.20;17.48;;;7.70;51.30;;;;;;4948685;28;114865;-81
2023/03/20 02:03:26;;;;;;;27.42;16.83;;;7.70;51.40;;;;;;4948826;28;114803;-81
2023/03/20 02:06:15;;;;;;;24.58;15.73;;;7.60;51.50;;;;;;4950261;28;115124;-81
2023/03/20 02:09:02;;;;;;;30.02;15.82;;;7.60;51.40;;;;;;4950241;28;119166;-81
2023/03/20 02:11:36;;;;;;;24.33;14.63;;;7.60;51.40;;;;;;4949648;28;114576;-81
2023/03/20 02:14:04;;;;;;;26.38;15.27;;;7.60;51.50;;;;;;4949127;28;114582;-81
2023/03/20 02:16:39;;;;;;;25.90;15.32;;;7.60;51.60;;;;;;4948683;28;116479;-81
2023/03/20 02:19:27;;;;;;;25.92;14.65;;;7.60;51.50;;;;;;4961107;28;114927;-81
2023/03/20 02:22:43;;;;;;;24.60;15.43;;;7.60;51.20;;;;;;4948071;28;114751;-81
2023/03/20 02:25:50;;;;;;;22.13;13.52;;;7.60;51.10;;;;;;4960246;28;114613;-81
2023/03/20 02:28:58;;;;;;;20.83;14.25;;;7.70;51.00;;;;;;4963476;28;115249;-81
2023/03/20 02:31:47;;;;;;;21.52;13.25;;;7.60;50.90;;;;;;4965663;28;117254;-81
2023/03/20 02:35:02;;;;;;;23.05;14.30;;;7.60;50.70;;;;;;4947958;28;114863;-81
2023/03/20 02:37:39;;;;;;;25.60;14.40;;;7.50;50.90;;;;;;4950270;28;114633;-80
2023/03/20 02:40:42;;;;;;;24.20;13.85;;;7.50;50.90;;;;;;4963300;28;115639;-82
2023/03/20 02:43:45;;;;;;;26.40;14.38;;;7.50;50.90;;;;;;4947822;28;115764;-81
2023/03/20 02:46:29;;;;;;;24.33;14.55;;;7.50;50.90;;;;;;4975858;28;116131;-81
2023/03/20 02:49:08;;;;;;;23.17;13.63;;;7.40;51.00;;;;;;4968247;28;114734;-82
2023/03/20 02:51:39;;;;;;;20.92;14.13;;;7.40;51.00;;;;;;4982738;28;115101;-81
2023/03/20 02:54:18;;;;;;;24.63;14.48;;;7.40;51.10;;;;;;4986014;28;115491;-81
2023/03/20 02:57:03;;;;;;;23.95;13.75;;;7.40;51.00;;;;;;4952981;28;114332;-81
2023/03/20 02:59:45;;;;;;;23.58;15.00;;;7.40;51.00;;;;;;4967766;28;116566;-81
2023/03/20 03:02:23;;;;;;;21.42;13.57;;;7.50;51.20;;;;;;4959903;28;116216;-81
2023/03/20 03:04:54;;;;;;;23.67;13.75;;;7.40;51.10;;;;;;4962779;28;114656;-81
2023/03/20 03:07:24;;;;;;;22.65;13.70;;;7.50;51.00;;;;;;4948003;28;114418;-82
2023/03/20 03:10:04;;;;;;;23.38;13.93;;;7.50;51.00;;;;;;4954591;28;114604;-82
2023/03/20 03:12:37;;;;;;;21.48;14.38;;;7.50;51.00;;;;;;4931803;28;115426;-81
2023/03/20 03:15:31;;;;;;;22.10;14.48;;;7.40;51.00;;;;;;4950924;28;114704;-81
2023/03/20 03:17:59;;;;;;;23.85;14.55;;;7.50;51.00;;;;;;4964771;28;114734;-81
2023/03/20 03:20:32;;;;;;;25.65;13.98;;;7.40;51.00;;;;;;4953723;28;115680;-82
2023/03/20 03:23:00;;;;;;;23.77;13.98;;;7.50;51.30;;;;;;4931214;28;115211;-81
2023/03/20 03:25:34;;;;;;;25.85;14.50;;;7.50;51.10;;;;;;4946074;28;115050;-81
2023/03/20 03:28:46;;;;;;;24.42;14.80;;;7.50;51.10;;;;;;4964251;28;114346;-81
2023/03/20 03:31:16;;;;;;;24.65;15.23;;;7.50;50.90;;;;;;4947473;28;114789;-81
2023/03/20 03:33:47;;;;;;;26.85;15.63;;;7.50;51.20;;;;;;4947577;28;114783;-81
2023/03/20 03:36:51;;;;;;;28.20;14.27;;;7.40;51.20;;;;;;4963332;28;116532;-81
2023/03/20 03:39:55;;;;;;;26.33;15.30;;;7.50;51.40;;;;;;4948301;28;115090;-81
2023/03/20 03:42:30;;;;;;;23.23;13.90;;;7.40;51.60;;;;;;4964945;28;114603;-81
2023/03/20 03:45:51;;;;;;;23.23;13.65;;;7.30;51.40;;;;;;4961981;28;115717;-81
2023/03/20 03:48:22;;;;;;;23.95;14.07;;;7.40;51.50;;;;;;4935550;28;117556;-81
2023/03/20 03:50:53;;;;;;;22.50;13.38;;;7.30;51.40;;;;;;4947476;28;114721;-80
2023/03/20 03:53:24;;;;;;;24.92;13.65;;;7.30;51.80;;;;;;4947435;28;114819;-80
2023/03/20 03:55:56;;;;;;;22.13;14.23;;;7.30;51.50;;;;;;4946646;28;115253;-81
2023/03/20 03:58:26;;;;;;;24.02;14.40;;;7.30;51.60;;;;;;4931297;28;114694;-81
2023/03/20 04:00:54;;;;;;;24.92;14.02;;;7.30;51.50;;;;;;4963378;28;114380;-82
2023/03/20 04:03:24;;;;;;;21.67;13.52;;;7.30;51.60;;;;;;4947804;28;114668;-81
2023/03/20 04:05:54;;;;;;;28.95;14.68;;;7.30;51.70;;;;;;4946877;28;115350;-81
2023/03/20 04:08:21;;;;;;;22.88;14.93;;;7.20;51.70;;;;;;4962206;28;114790;-81
2023/03/20 04:10:49;;;;;;;26.60;14.73;;;7.20;51.50;;;;;;4962300;28;114472;-80
2023/03/20 04:13:16;;;;;;;26.48;14.90;;;7.20;51.60;;;;;;4947455;28;114487;-80
2023/03/20 04:15:43;;;;;;;27.92;15.02;;;7.30;51.50;;;;;;4946702;28;116277;-81
2023/03/20 04:18:15;;;;;;;21.95;13.23;;;7.30;51.70;;;;;;4962835;28;116135;-81
2023/03/20 04:20:45;;;;;;;24.60;13.93;;;7.30;51.70;;;;;;4947625;28;115013;-82
2023/03/20 04:23:13;;;;;;;25.60;13.77;;;7.30;51.70;;;;;;4947429;28;115083;-81
2023/03/20 04:25:41;;;;;;;26.75;13.85;;;7.40;51.80;;;;;;4961845;28;115728;-81
2023/03/20 04:28:10;;;;;;;27.98;14.63;;;7.40;51.80;;;;;;4953349;28;116909;-80
2023/03/20 04:31:02;;;;;;;23.98;13.70;;;7.40;51.70;;;;;;4970379;28;117005;-82
2023/03/20 04:33:32;;;;;;;27.08;15.85;;;7.40;51.60;;;;;;4966994;28;114472;-81
2023/03/20 04:36:20;;;;;;;28.08;16.63;;;7.40;51.80;;;;;;4978672;28;116719;-81
2023/03/20 04:38:48;;;;;;;28.90;16.13;;;7.40;51.70;;;;;;4931102;28;115766;-82
2023/03/20 04:41:15;;;;;;;32.88;16.95;;;7.50;51.80;;;;;;4964150;28;114398;-82
2023/03/20 04:43:46;;;;;;;31.73;19.65;;;7.40;51.70;;;;;;4947213;28;114561;-81
2023/03/20 04:46:17;;;;;;;34.65;20.45;;;7.40;52.10;;;;;;4946616;28;115240;-82
2023/03/20 04:48:44;;;;;;;41.38;20.75;;;7.40;51.80;;;;;;4961859;28;116741;-81
2023/03/20 04:51:12;;;;;;;37.50;21.45;;;7.40;52.00;;;;;;4962994;28;114841;-81
2023/03/20 04:53:44;;;;;;;47.75;23.25;;;7.40;51.80;;;;;;4947817;28;114601;-81
2023/03/20 04:56:12;;;;;;;42.65;22.88;;;7.40;51.80;;;;;;4945734;28;115023;-81
2023/03/20 04:58:39;;;;;;;81.38;33.42;;;7.30;51.90;;;;;;4945604;28;115198;-81
2023/03/20 05:01:08;;;;;;;136.55;48.13;;;7.40;52.00;;;;;;4946477;28;114708;-81
2023/03/20 05:03:35;;;;;;;161.10;52.42;;;7.30;52.00;;;;;;4963500;28;114448;-81
2023/03/20 05:06:03;;;;;;;161.85;53.30;;;7.30;52.20;;;;;;4961797;28;115087;-81
2023/03/20 05:08:31;;;;;;;156.25;51.25;;;7.30;52.30;;;;;;4961986;28;114598;-81
2023/03/20 05:11:00;;;;;;;132.75;45.75;;;7.40;52.20;;;;;;4961958;28;116101;-81
2023/03/20 05:13:53;;;;;;;100.53;36.42;;;7.40;52.30;;;;;;4962643;28;114471;-81
2023/03/20 05:16:23;;;;;;;53.53;24.63;;;7.30;52.40;;;;;;4945128;28;117207;-81
2023/03/20 05:19:19;;;;;;;41.88;22.58;;;7.30;52.30;;;;;;4966944;28;114784;-83
2023/03/20 05:21:56;;;;;;;42.72;22.00;;;7.40;52.50;;;;;;4958808;28;114642;-81
2023/03/20 05:24:40;;;;;;;37.38;20.55;;;7.40;52.30;;;;;;4948055;28;114619;-82
2023/03/20 05:27:34;;;;;;;38.78;20.40;;;7.30;52.40;;;;;;4953083;28;115688;-83
2023/03/20 05:30:21;;;;;;;31.88;19.30;;;7.40;52.40;;;;;;4954786;28;115956;-82
2023/03/20 05:33:17;;;;;;;34.92;19.35;;;7.40;52.60;;;;;;4957490;28;114539;-82
2023/03/20 05:36:06;;;;;;;32.13;18.70;;;7.40;52.40;;;;;;4965612;28;114635;-81
2023/03/20 05:38:54;;;;;;;30.23;19.35;;;7.40;52.30;;;;;;4971992;28;116942;-82
2023/03/20 05:41:38;;;;;;;37.42;19.13;;;7.40;52.60;;;;;;4946786;28;114647;-82
2023/03/20 05:44:39;;;;;;;32.20;18.10;;;7.40;53.00;;;;;;4960068;28;116208;-82
2023/03/20 05:47:25;;;;;;;31.92;19.20;;;7.50;53.30;;;;;;4974206;28;116481;-81
2023/03/20 05:50:00;;;;;;;29.45;18.17;;;7.50;53.20;;;;;;4949311;28;117166;-82
2023/03/20 05:52:57;;;;;;;32.25;19.45;;;7.60;53.20;;;;;;4966820;28;114855;-82
2023/03/20 05:55:43;;;;;;;30.48;18.40;;;7.60;52.60;;;;;;4978625;28;114473;-79
2023/03/20 05:58:29;;;;;;;27.55;18.73;;;7.60;52.40;;;;;;4968766;28;115846;-78
2023/03/20 06:01:02;;;;;;;27.73;17.43;;;7.60;52.30;;;;;;4936559;28;118229;-80
2023/03/20 06:03:50;;;;;;;27.95;18.42;;;7.60;52.20;;;;;;4952864;28;117987;-79
2023/03/20 06:06:38;;;;;;;35.47;17.48;;;7.60;52.10;;;;;;4963767;28;116285;-80
2023/03/20 06:09:06;;;;;;;29.92;17.42;;;7.60;52.20;;;;;;4960869;28;116741;-81
2023/03/20 06:11:34;;;;;;;32.92;17.52;;;7.70;52.30;;;;;;4946990;28;116602;-81
2023/03/20 06:14:04;;;;;;;35.08;19.70;;;7.70;52.10;;;;;;4963585;28;114579;-81
2023/03/20 06:16:37;;;;;;;28.25;16.65;;;7.70;52.20;;;;;;4965109;28;114579;-80
2023/03/20 06:19:05;;;;;;;30.92;18.67;;;7.70;52.10;;;;;;4947789;28;114746;-81
2023/03/20 06:21:32;;;;;;;29.85;18.00;;;7.80;52.00;;;;;;4950191;28;115117;-81
2023/03/20 06:24:00;;;;;;;32.70;19.05;;;7.80;51.90;;;;;;4956252;28;116200;-80
2023/03/20 06:26:28;;;;;;;28.73;17.83;;;7.90;52.00;;;;;;4965128;28;114583;-81
2023/03/20 06:29:03;;;;;;;30.15;18.10;;;7.90;51.90;;;;;;4949764;28;114798;-80
2023/03/20 06:31:32;;;;;;;32.35;18.98;;;7.90;51.90;;;;;;4948113;28;116385;-81
2023/03/20 06:34:01;;;;;;;32.58;17.92;;;7.90;52.00;;;;;;4961777;28;114921;-81
2023/03/20 06:36:29;;;;;;;33.10;18.92;;;8.00;52.00;;;;;;4947646;28;114875;-81
2023/03/20 06:39:03;;;;;;;39.22;18.55;;;7.90;52.00;;;;;;4964372;28;114792;-80
2023/03/20 06:41:30;;;;;;;31.65;17.83;;;8.00;51.90;;;;;;4963028;28;115021;-80
2023/03/20 06:44:05;;;;;;;35.13;18.33;;;8.00;51.90;;;;;;4944912;28;116990;-79
2023/03/20 06:46:52;;;;;;;31.70;17.83;;;8.00;51.80;;;;;;4968886;28;114558;-81
2023/03/20 06:49:20;;;;;;;31.55;18.08;;;8.00;51.80;;;;;;4962496;28;114434;-81
2023/03/20 06:51:47;;;;;;;34.42;18.17;;;8.10;51.80;;;;;;4963473;28;116501;-82
2023/03/20 06:54:22;;;;;;;38.42;18.58;;;8.10;51.90;;;;;;4963350;28;115159;-80
2023/03/20 06:56:50;;;;;;;33.53;18.40;;;8.10;51.90;;;;;;4963562;28;114778;-82
2023/03/20 06:59:20;;;;;;;33.60;17.83;;;8.10;51.80;;;;;;4947952;28;114441;-80
2023/03/20 07:01:48;;;;;;;37.63;19.52;;;8.10;51.90;;;;;;4960952;28;117264;-81
2023/03/20 07:04:16;;;;;;;45.15;20.23;;;8.20;51.80;;;;;;4964536;28;115276;-81
2023/03/20 07:06:50;;;;;;;40.33;22.83;;;8.20;51.90;;;;;;4948455;28;117163;-80
2023/03/20 07:09:18;;;;;;;48.33;20.42;;;8.20;51.90;;;;;;4965014;28;114773;-80
2023/03/20 07:11:45;;;;;;;41.63;19.65;;;8.20;51.90;;;;;;4958395;28;116275;-81
2023/03/20 07:14:13;;;;;;;31.38;18.63;;;8.20;51.80;;;;;;4963258;28;114761;-80
2023/03/20 07:16:49;;;;;;;43.30;18.85;;;8.30;51.80;;;;;;4946084;28;114625;-80
2023/03/20 07:19:18;;;;;;;39.05;17.88;;;8.20;51.90;;;;;;4964346;28;114423;-82
2023/03/20 07:21:56;;;;;;;32.78;17.73;;;8.30;51.80;;;;;;4932612;28;115009;-80
2023/03/20 07:24:24;;;;;;;29.77;16.63;;;8.30;51.80;;;;;;4960258;28;114827;-81
2023/03/20 07:26:51;;;;;;;31.35;16.85;;;8.40;51.90;;;;;;4946745;28;114764;-80
2023/03/20 07:29:19;;;;;;;32.53;16.73;;;8.40;52.00;;;;;;4961702;28;114678;-81
2023/03/20 07:31:47;;;;;;;29.05;16.60;;;8.40;51.90;;;;;;4940487;28;116411;-81
2023/03/20 07:34:22;;;;;;;31.40;16.75;;;8.50;51.80;;;;;;4932845;28;117688;-81
2023/03/20 07:36:50;;;;;;;35.33;17.33;;;8.50;51.70;;;;;;4962904;28;114413;-82
2023/03/20 07:39:20;;;;;;;25.63;16.55;;;8.60;51.90;;;;;;4945623;28;114452;-82
2023/03/20 07:42:14;;;;;;;37.63;18.35;;;8.60;51.80;;;;;;4951173;28;117804;-81
2023/03/20 07:44:46;;;;;;;35.58;17.33;;;8.70;51.70;;;;;;4947066;28;114741;-81
2023/03/20 07:47:13;;;;;;;28.55;17.00;;;8.70;51.60;;;;;;4962832;28;114947;-82
2023/03/20 07:49:40;;;;;;;31.58;17.67;;;8.70;51.30;;;;;;4963522;28;117687;-81
2023/03/20 07:52:09;;;;;;;34.47;17.58;;;8.80;51.00;;;;;;4946093;28;116368;-82
2023/03/20 07:54:36;;;;;;;35.88;18.20;;;8.90;50.90;;;;;;4961558;28;116338;-81
2023/03/20 07:57:07;;;;;;;29.00;17.42;;;9.00;51.00;;;;;;4929451;28;114767;-81
2023/03/20 07:59:35;;;;;;;38.10;17.63;;;9.20;50.60;;;;;;4929410;28;114597;-81
2023/03/20 08:02:02;;;;;;;34.42;18.65;;;9.30;50.40;;;;;;4960328;28;117124;-81
2023/03/20 08:04:31;;;;;;;31.05;18.92;;;9.50;50.50;;;;;;4963628;28;114955;-82
2023/03/20 08:06:58;;;;;;;32.13;18.02;;;9.60;50.10;;;;;;4943536;28;114774;-82
2023/03/20 08:09:25;;;;;;;36.33;19.58;;;9.70;49.80;;;;;;4929817;28;118767;-81
2023/03/20 08:11:53;;;;;;;37.92;20.08;;;9.70;49.60;;;;;;4945381;28;115648;-81
2023/03/20 08:14:20;;;;;;;37.92;18.77;;;9.80;49.50;;;;;;4962097;28;116132;-81
2023/03/20 08:16:47;;;;;;;32.08;19.35;;;9.90;49.50;;;;;;4964164;28;114758;-81
2023/03/20 08:19:28;;;;;;;34.53;18.85;;;9.90;49.40;;;;;;4963010;28;114674;-81
2023/03/20 08:22:00;;;;;;;35.30;19.92;;;10.00;49.40;;;;;;4946661;28;115084;-81
2023/03/20 08:24:30;;;;;;;34.45;19.55;;;10.10;49.00;;;;;;4946324;28;116086;-81
2023/03/20 08:26:57;;;;;;;31.08;18.35;;;10.10;49.00;;;;;;4946292;28;114661;-81
2023/03/20 08:29:25;;;;;;;45.50;19.65;;;10.10;48.80;;;;;;4962126;28;114783;-81
2023/03/20 08:31:52;;;;;;;32.25;17.98;;;10.20;48.80;;;;;;4959623;28;115701;-79
2023/03/20 08:34:19;;;;;;;34.50;18.33;;;10.20;48.80;;;;;;4963075;28;115111;-80
2023/03/20 08:36:57;;;;;;;34.38;17.65;;;10.20;48.80;;;;;;4963513;28;114419;-79
2023/03/20 08:40:13;;;;;;;25.08;17.10;;;10.40;48.60;;;;;;4952345;28;114750;-80
2023/03/20 08:42:40;;;;;;;26.85;16.40;;;10.40;48.80;;;;;;4945601;28;115174;-81
2023/03/20 08:45:08;;;;;;;23.70;15.85;;;10.50;48.90;;;;;;4962763;28;114647;-80
2023/03/20 08:47:36;;;;;;;25.17;15.50;;;10.70;48.60;;;;;;4971856;28;114538;-82
2023/03/20 08:50:07;;;;;;;23.55;15.63;;;10.70;48.50;;;;;;4968851;28;114766;-81
2023/03/20 08:52:35;;;;;;;23.50;15.80;;;10.80;48.30;;;;;;4963673;28;117842;-81
2023/03/20 08:55:02;;;;;;;21.33;14.45;;;10.90;48.00;;;;;;4965566;28;115523;-81
2023/03/20 08:57:30;;;;;;;24.70;15.77;;;11.00;47.90;;;;;;4930343;28;114624;-81
2023/03/20 08:59:57;;;;;;;26.45;15.98;;;11.10;47.70;;;;;;4963020;28;114508;-81
2023/03/20 09:02:24;;;;;;;23.25;15.65;;;11.20;47.30;;;;;;4961876;28;115104;-81
2023/03/20 09:04:52;;;;;;;22.65;16.08;;;11.20;47.30;;;;;;4961183;28;115080;-82
2023/03/20 09:07:20;;;;;;;23.50;15.60;;;11.20;47.00;;;;;;4959141;28;114679;-81
2023/03/20 09:09:48;;;;;;;36.00;16.08;;;11.20;47.10;;;;;;4956229;28;114786;-81
2023/03/20 09:12:15;;;;;;;28.30;15.52;;;11.30;47.40;;;;;;4956033;28;116617;-82
2023/03/20 09:14:45;;;;;;;25.13;16.15;;;11.40;47.40;;;;;;4953998;28;116338;-81
2023/03/20 09:17:12;;;;;;;23.70;16.15;;;11.60;47.30;;;;;;4960381;28;115196;-81
2023/03/20 09:19:43;;;;;;;21.50;16.17;;;11.80;47.10;;;;;;4943303;28;114881;-81
2023/03/20 09:22:13;;;;;;;28.73;17.23;;;12.10;47.10;;;;;;4962170;28;115365;-82
2023/03/20 09:24:41;;;;;;;19.88;16.02;;;12.30;46.70;;;;;;4961151;28;114662;-83
2023/03/20 09:27:08;;;;;;;20.60;16.20;;;12.50;46.20;;;;;;4962378;28;114714;-81
2023/03/20 09:29:35;;;;;;;23.25;16.13;;;12.70;46.30;;;;;;4945767;28;114827;-82
2023/03/20 09:32:02;;;;;;;22.35;16.15;;;12.80;45.90;;;;;;4961148;28;115269;-82
2023/03/20 09:34:30;;;;;;;34.58;22.55;;;12.90;45.60;;;;;;4963206;28;114665;-82
2023/03/20 09:36:57;;;;;;;44.70;19.10;;;13.00;45.40;;;;;;4948930;28;115361;-81
2023/03/20 09:39:26;;;;;;;22.10;17.38;;;13.10;45.60;;;;;;4960908;28;115046;-81
2023/03/20 09:41:53;;;;;;;20.77;16.23;;;13.10;45.40;;;;;;4960106;28;116279;-81
2023/03/20 09:44:51;;;;;;;23.10;16.80;;;13.20;44.90;;;;;;4927278;28;115945;-81
2023/03/20 09:47:39;;;;;;;23.58;16.35;;;13.30;44.60;;;;;;4945924;28;114635;-82
2023/03/20 09:50:30;;;;;;;21.92;16.35;;;13.30;44.60;;;;;;4959044;28;114689;-80
2023/03/20 09:53:37;;;;;;;19.90;14.97;;;13.40;44.20;;;;;;4967192;28;115139;-81
2023/03/20 09:56:15;;;;;;;19.55;14.93;;;13.60;44.20;;;;;;4945778;28;116013;-81
2023/03/20 09:58:43;;;;;;;22.25;15.90;;;13.70;43.70;;;;;;4946510;28;114697;-81
2023/03/20 10:01:12;;;;;;;23.20;15.27;;;13.80;43.50;;;;;;4950677;28;116470;-82
2023/03/20 10:03:56;;;;;;;19.73;15.93;;;14.00;43.20;;;;;;4960487;28;119786;-82
2023/03/20 10:06:23;;;;;;;21.52;15.73;;;14.10;43.00;;;;;;4948664;28;116834;-80
2023/03/20 10:08:51;;;;;;;20.38;15.23;;;14.20;42.90;;;;;;4948756;28;114690;-82
2023/03/20 10:12:03;;;;;;;20.30;15.80;;;14.20;42.90;;;;;;4931055;28;114577;-82
2023/03/20 10:15:12;;;;;;;23.17;15.60;;;14.30;42.80;;;;;;4965515;28;115959;-82
2023/03/20 10:18:03;;;;;;;20.77;15.10;;;14.40;42.90;;;;;;4960582;28;115912;-82
2023/03/20 10:20:38;;;;;;;20.88;14.27;;;14.60;42.90;;;;;;4946274;28;114618;-82
2023/03/20 10:23:26;;;;;;;19.92;15.95;;;14.70;42.60;;;;;;4934554;28;114542;-83
2023/03/20 10:25:59;;;;;;;18.75;14.10;;;14.80;42.30;;;;;;4964448;28;114659;-83
2023/03/20 10:29:04;;;;;;;18.30;13.30;;;14.80;41.80;;;;;;4945805;28;116324;-83
2023/03/20 10:31:43;;;;;;;;;;;14.80;41.90;;;;;;4961010;28;114800;-83
2023/03/20 10:35:11;;;;;;;18.35;12.85;;;14.80;42.80;;;;;;4962161;28;114492;-83
2023/03/20 10:38:02;;;;;;;16.23;12.85;;;14.80;41.80;;;;;;4960288;28;115579;-83
2023/03/20 10:40:35;;;;;;;17.75;13.68;;;14.90;41.20;;;;;;4961412;28;114819;-81
2023/03/20 10:43:26;;;;;;;21.25;15.00;;;14.90;41.00;;;;;;4961945;28;114792;-81
2023/03/20 10:46:21;;;;;;;19.45;13.80;;;15.00;41.00;;;;;;4961766;28;114721;-81
2023/03/20 10:49:00;;;;;;;18.77;13.65;;;15.00;40.70;;;;;;4943630;28;115577;-81
2023/03/20 10:51:37;;;;;;;19.67;14.15;;;14.90;41.00;;;;;;4958660;28;118991;-82
2023/03/20 10:54:05;;;;;;;17.30;13.70;;;14.90;41.10;;;;;;4950366;28;115895;-82
2023/03/20 10:56:41;;;;;;;18.27;13.25;;;15.00;41.20;;;;;;4947377;28;114725;-82
2023/03/20 10:59:39;;;;;;;18.33;13.88;;;15.10;41.30;;;;;;4947547;28;115101;-82
2023/03/20 11:02:11;;;;;;;19.20;13.77;;;15.10;41.10;;;;;;4933275;28;114922;-81
2023/03/20 11:04:38;;;;;;;17.13;13.35;;;15.20;41.20;;;;;;4964209;28;114711;-82
2023/03/20 11:07:34;;;;;;;17.42;12.48;;;15.30;41.40;;;;;;4963085;28;114506;-82
2023/03/20 11:10:04;;;;;;;;;;;15.50;41.30;;;;;;4941838;28;116417;-80
2023/03/20 11:12:39;;;;;;;16.73;13.85;;;15.50;41.90;;;;;;4962096;28;116359;-83
2023/03/20 11:15:25;;;;;;;17.23;14.30;;;15.50;40.50;;;;;;4947860;28;114606;-80
2023/03/20 11:17:55;;;;;;;16.50;13.00;;;15.50;40.60;;;;;;4963440;28;114714;-83
2023/03/20 11:20:24;;;;;;;16.13;12.23;;;15.60;40.70;;;;;;4962470;28;115641;-83
2023/03/20 11:22:57;;;;;;;15.93;11.82;;;15.60;40.90;;;;;;4961322;28;114695;-84
2023/03/20 11:25:43;;;;;;;14.63;11.23;;;15.70;41.00;;;;;;4947268;28;114914;-82
2023/03/20 11:28:36;;;;;;;16.52;11.43;;;15.70;41.00;;;;;;4963512;28;114992;-82
2023/03/20 11:31:30;;;;;;;16.52;11.25;;;15.70;40.90;;;;;;4962264;28;115023;-82
2023/03/20 11:34:13;;;;;;;15.73;11.30;;;15.60;41.10;;;;;;4964366;28;115305;-82
2023/03/20 11:37:00;;;;;;;17.63;11.00;;;15.60;41.30;;;;;;4979471;28;115429;-82
2023/03/20 11:39:52;;;;;;;14.30;10.75;;;15.50;41.30;;;;;;4965420;28;114576;-82
2023/03/20 11:42:25;;;;;;;15.48;11.57;;;15.50;41.70;;;;;;4962670;28;115232;-82
2023/03/20 11:45:00;;;;;;;19.13;10.10;;;15.50;41.70;;;;;;4964063;28;114729;-82
2023/03/20 11:47:31;;;;;;;15.07;10.32;;;15.50;41.80;;;;;;4946248;28;114973;-82
2023/03/20 11:50:01;;;;;;;16.30;10.25;;;15.50;42.00;;;;;;4948087;28;114616;-82
2023/03/20 11:52:34;;;;;;;14.80;10.85;;;15.50;42.00;;;;;;4961538;28;116706;-82
2023/03/20 11:55:06;;;;;;;15.05;10.85;;;15.50;42.20;;;;;;4928512;28;118369;-81
2023/03/20 11:57:37;;;;;;;15.95;10.75;;;15.50;42.40;;;;;;4961173;28;114584;-82
2023/03/20 12:00:38;;;;;;;13.38;9.82;;;15.50;42.50;;;;;;4947570;28;114488;-81
2023/03/20 12:03:36;;;;;;;14.55;10.90;;;15.50;42.30;;;;;;4960304;28;115634;-81
2023/03/20 12:06:05;;;;;;;16.13;11.40;;;15.50;42.40;;;;;;4946299;28;114764;-82
2023/03/20 12:08:34;;;;;;;15.57;12.40;;;15.30;42.60;;;;;;4964737;28;114725;-81
2023/03/20 12:11:16;;;;;;;14.77;12.20;;;15.30;42.30;;;;;;4931003;28;114481;-80
2023/03/20 12:13:43;;;;;;;18.50;14.35;;;15.20;42.30;;;;;;4928284;28;117683;-81
2023/03/20 12:16:12;;;;;;;17.38;13.20;;;15.20;42.50;;;;;;4945204;28;114534;-81
2023/03/20 12:18:46;;;;;;;16.95;13.80;;;15.10;42.60;;;;;;4961918;28;114838;-81
2023/03/20 12:21:42;;;;;;;17.92;14.38;;;15.10;42.50;;;;;;4930499;28;114709;-81
2023/03/20 12:24:41;;;;;;;17.77;13.88;;;15.00;42.60;;;;;;4957524;28;118519;-82
2023/03/20 12:27:25;;;;;;;16.90;12.95;;;15.00;42.80;;;;;;4959300;28;116012;-81
2023/03/20 12:30:30;;;;;;;17.35;11.85;;;14.90;43.10;;;;;;4962688;28;114688;-82
2023/03/20 12:33:11;;;;;;;16.42;11.90;;;14.80;43.30;;;;;;4961712;28;114797;-82
2023/03/20 12:35:43;;;;;;;16.38;11.23;;;14.70;43.90;;;;;;4958957;28;115276;-83
2023/03/20 12:38:27;;;;;;;14.77;11.27;;;14.70;44.10;;;;;;4945004;28;114703;-80
2023/03/20 12:41:25;;;;;;;14.70;11.23;;;14.70;44.30;;;;;;4931009;28;114629;-83
2023/03/20 12:44:17;;;;;;;18.58;10.43;;;14.70;44.40;;;;;;4962838;28;114983;-82
2023/03/20 12:47:15;;;;;;;19.00;12.38;;;14.70;44.40;;;;;;4962085;28;115219;-82
2023/03/20 12:49:50;;;;;;;22.33;16.13;;;14.60;44.70;;;;;;4961776;28;114698;-82
2023/03/20 12:52:43;;;;;;;25.23;17.20;;;14.60;44.70;;;;;;4962277;28;114780;-82
2023/03/20 12:55:31;;;;;;;20.30;16.92;;;14.60;44.50;;;;;;4959289;28;114492;-82
2023/03/20 12:58:34;;;;;;;20.80;16.48;;;14.50;44.60;;;;;;4962907;28;116942;-80
2023/03/20 13:01:08;;;;;;;22.42;17.77;;;14.50;44.60;;;;;;4965721;28;114965;-80
2023/03/20 13:03:49;;;;;;;;;;;14.40;44.70;;;;;;4961672;28;114520;-80
2023/03/20 13:06:51;;;;;;;25.38;17.83;;;14.40;44.40;;;;;;4963030;28;114475;-81
2023/03/20 13:09:47;;;;;;;22.88;18.17;;;14.50;44.60;;;;;;4958153;28;118449;-81
2023/03/20 13:13:01;;;;;;;22.40;18.58;;;14.40;44.80;;;;;;4944057;28;115312;-81